Time;durP1;ratioP1;P1;durP2;ratioP2;P2;SDS_P1;SDS_P2;PMS_P1;PMS_P2;Temp;Humidity;BMP_temperature;BMP_pressure;BME280_temperature;BME280_humidity;BME280_pressure;Samples;Min_cycle;Max_cycle;Signal;HPM_P1;HPM_P2
2022/05/01 00:01:12;;;;;;;;;19.33;18.00;14.90;72.90;;;;;;4701078;30;8838;-65
2022/05/01 00:03:39;;;;;;;;;17.67;17.00;15.20;71.50;;;;;;4701069;30;9468;-64
2022/05/01 00:06:09;;;;;;;;;17.00;17.00;15.20;71.10;;;;;;4700992;30;8900;-64
2022/05/01 00:08:38;;;;;;;;;22.00;21.33;15.50;69.80;;;;;;4714502;30;8845;-64
2022/05/01 00:11:04;;;;;;;;;22.67;22.67;15.90;67.60;;;;;;4700969;30;8818;-64
2022/05/01 00:13:30;;;;;;;;;22.33;21.33;16.10;66.10;;;;;;4700983;30;8805;-64
2022/05/01 00:15:56;;;;;;;;;21.00;20.33;16.20;65.80;;;;;;4700825;30;8857;-64
2022/05/01 00:18:22;;;;;;;;;25.33;25.33;15.90;67.00;;;;;;4700956;30;8898;-65
2022/05/01 00:20:48;;;;;;;;;23.00;22.33;15.60;68.00;;;;;;4701054;30;9458;-64
2022/05/01 00:23:15;;;;;;;;;25.33;23.67;15.80;67.70;;;;;;4701193;30;8840;-64
2022/05/01 00:25:42;;;;;;;;;31.00;30.00;15.30;70.00;;;;;;4700875;30;8832;-64
2022/05/01 00:28:09;;;;;;;;;31.00;29.67;15.10;70.80;;;;;;4700842;30;8817;-64
2022/05/01 00:30:36;;;;;;;;;25.67;24.33;15.30;69.80;;;;;;4701054;30;8825;-65
2022/05/01 00:38:30;;;;;;;;;33.67;31.00;14.80;73.30;;;;;;4700873;30;8916;-64
2022/05/01 00:40:57;;;;;;;;;33.33;30.00;14.70;73.10;;;;;;4700848;30;9015;-64
2022/05/01 00:43:24;;;;;;;;;45.75;38.75;14.40;75.60;;;;;;4700743;30;8837;-64
2022/05/01 00:45:49;;;;;;;;;40.75;35.25;14.30;76.00;;;;;;4702165;30;8949;-64
2022/05/01 00:48:15;;;;;;;;;51.25;42.50;14.20;77.00;;;;;;4704363;30;8822;-64
2022/05/01 00:50:43;;;;;;;;;41.25;35.00;14.30;76.70;;;;;;4704199;30;8810;-64
2022/05/01 00:53:09;;;;;;;;;29.67;29.33;14.30;76.80;;;;;;4704008;30;8825;-65
2022/05/01 00:55:38;;;;;;;;;31.67;30.67;14.20;77.10;;;;;;4703735;30;8889;-64
2022/05/01 00:58:06;;;;;;;;;33.67;31.00;14.20;77.70;;;;;;4703950;30;8852;-64
2022/05/01 01:00:33;;;;;;;;;28.33;26.00;14.40;76.70;;;;;;4703986;30;8932;-64
2022/05/01 01:02:59;;;;;;;;;36.00;31.25;14.40;76.30;;;;;;4703893;30;8826;-64
2022/05/01 01:05:24;;;;;;;;;30.33;26.67;14.70;74.20;;;;;;4703729;30;8840;-64
2022/05/01 01:07:50;;;;;;;;;24.67;24.67;15.20;71.00;;;;;;4703816;30;9583;-64
2022/05/01 01:10:16;;;;;;;;;30.00;27.33;15.30;69.90;;;;;;4703892;30;8821;-64
2022/05/01 01:12:54;;;;;;;;;24.33;24.33;14.80;71.70;;;;;;4703948;30;9523;-64
2022/05/01 01:15:21;;;;;;;;;22.00;20.67;14.50;74.10;;;;;;4703638;30;8818;-64
2022/05/01 01:17:52;;;;;;;;;21.00;19.33;14.60;73.60;;;;;;4703457;30;8841;-65
2022/05/01 01:20:25;;;;;;;;;19.33;19.00;14.60;73.70;;;;;;4703570;30;8915;-63
2022/05/01 01:22:56;;;;;;;;;19.67;19.33;14.50;73.80;;;;;;4704110;30;8817;-64
2022/05/01 01:25:29;;;;;;;;;19.00;18.33;14.70;73.00;;;;;;4703768;30;8927;-63
2022/05/01 01:27:59;;;;;;;;;19.67;19.00;14.80;72.00;;;;;;4703611;30;8841;-63
2022/05/01 01:33:10;;;;;;;;;30.67;27.67;14.60;73.20;;;;;;4703579;30;8782;-63
2022/05/01 01:35:38;;;;;;;;;39.25;35.00;14.90;71.30;;;;;;4703128;30;8895;-64
2022/05/01 01:38:04;;;;;;;;;34.00;30.33;14.70;72.10;;;;;;4703605;30;8892;-64
2022/05/01 01:40:37;;;;;;;;;49.50;40.00;14.60;73.60;;;;;;4703157;30;8817;-64
2022/05/01 01:43:05;;;;;;;;;53.25;44.50;15.10;70.60;;;;;;4703265;30;8830;-64
2022/05/01 01:45:31;;;;;;;;;58.00;45.50;14.90;71.50;;;;;;4716722;30;8931;-64
2022/05/01 01:48:11;;;;;;;;;60.00;49.00;14.90;72.00;;;;;;4703090;30;8814;-64
2022/05/01 01:50:37;;;;;;;;;60.75;48.75;14.80;71.50;;;;;;4703068;30;8837;-64
2022/05/01 01:53:04;;;;;;;;;64.25;50.50;14.50;72.40;;;;;;4703086;30;8810;-64
2022/05/01 01:55:37;;;;;;;;;60.00;47.75;14.50;72.70;;;;;;4702883;30;8883;-64
2022/05/01 01:58:03;;;;;;;;;49.75;40.25;14.50;72.70;;;;;;4703074;30;8813;-64
2022/05/01 02:00:29;;;;;;;;;32.00;28.00;14.50;73.00;;;;;;4703174;30;9492;-64
2022/05/01 02:02:59;;;;;;;;;29.00;26.67;14.80;71.20;;;;;;4703176;30;8930;-64
2022/05/01 02:05:25;;;;;;;;;21.33;21.33;15.10;69.60;;;;;;4702889;30;9641;-63
2022/05/01 02:07:51;;;;;;;;;23.00;21.33;15.30;68.40;;;;;;4702861;30;8813;-64
2022/05/01 02:10:17;;;;;;;;;17.33;17.33;15.00;69.00;;;;;;4702741;30;8848;-64
2022/05/01 02:12:43;;;;;;;;;19.00;18.00;15.10;69.00;;;;;;4702999;30;9457;-64
2022/05/01 02:15:10;;;;;;;;;15.67;15.67;15.20;68.40;;;;;;4702895;30;8916;-65
2022/05/01 02:17:38;;;;;;;;;19.00;18.00;15.20;67.90;;;;;;4702958;30;8849;-65
2022/05/01 02:20:05;;;;;;;;;19.67;17.33;15.20;67.80;;;;;;4702501;30;8833;-64
2022/05/01 02:22:31;;;;;;;;;19.00;19.00;15.00;68.90;;;;;;4702526;30;9496;-63
2022/05/01 02:24:56;;;;;;;;;21.67;21.67;15.00;68.90;;;;;;4702547;30;8848;-64
2022/05/01 02:27:22;;;;;;;;;12.00;12.00;14.70;69.90;;;;;;4702584;30;8841;-64
2022/05/01 02:29:48;;;;;;;;;23.67;21.33;14.70;69.90;;;;;;4702561;30;8884;-65
2022/05/01 02:32:14;;;;;;;;;22.67;22.67;14.40;71.60;;;;;;4702594;30;9521;-64
2022/05/01 02:34:40;;;;;;;;;20.67;20.00;14.60;71.10;;;;;;4702413;30;8863;-64
2022/05/01 02:37:06;;;;;;;;;22.00;20.00;14.80;69.70;;;;;;4702493;30;8904;-64
2022/05/01 02:39:35;;;;;;;;;26.00;24.33;14.70;69.70;;;;;;4702495;30;9594;-64
2022/05/01 02:42:01;;;;;;;;;38.00;33.00;14.70;69.60;;;;;;4702199;30;8805;-65
2022/05/01 02:44:27;;;;;;;;;25.67;25.33;14.70;70.80;;;;;;4702242;30;8825;-64
2022/05/01 02:46:52;;;;;;;;;27.67;26.33;14.70;69.90;;;;;;4702180;30;8810;-65
2022/05/01 02:49:20;;;;;;;;;20.33;20.33;14.60;70.20;;;;;;4702365;30;8814;-64
2022/05/01 02:51:45;;;;;;;;;5.00;4.00;14.90;69.20;;;;;;4702320;30;8829;-65
2022/05/01 02:54:11;;;;;;;;;18.33;17.00;14.40;71.10;;;;;;4702376;30;9519;-65
2022/05/01 02:56:37;;;;;;;;;17.00;17.00;14.10;73.10;;;;;;4701777;30;9610;-65
2022/05/01 02:59:02;;;;;;;;;19.33;19.00;14.00;73.80;;;;;;4702203;30;8840;-65
2022/05/01 03:01:31;;;;;;;;;24.00;24.00;14.30;73.00;;;;;;4701829;30;8857;-65
2022/05/01 03:03:57;;;;;;;;;25.00;23.67;14.30;72.40;;;;;;4700297;30;8821;-65
2022/05/01 03:06:22;;;;;;;;;25.00;24.00;14.20;72.70;;;;;;4701912;30;8885;-65
2022/05/01 03:08:48;;;;;;;;;18.67;18.67;14.40;71.70;;;;;;4701621;30;8817;-64
2022/05/01 03:11:14;;;;;;;;;14.33;14.33;14.50;70.70;;;;;;4701660;30;8821;-65
2022/05/01 03:13:40;;;;;;;;;15.00;15.00;14.70;69.90;;;;;;4701575;30;8935;-65
2022/05/01 03:16:05;;;;;;;;;18.00;17.67;14.50;70.30;;;;;;4701724;30;9624;-65
2022/05/01 03:23:59;;;;;;;;;18.00;17.67;14.60;69.60;;;;;;4701714;30;8916;-65
2022/05/01 03:26:25;;;;;;;;;25.33;20.67;14.60;69.80;;;;;;4701777;30;8919;-65
2022/05/01 03:28:51;;;;;;;;;21.00;21.00;14.30;71.20;;;;;;4701754;30;8822;-64
2022/05/01 03:31:17;;;;;;;;;27.33;26.33;14.10;72.70;;;;;;4701582;30;8817;-65
2022/05/01 03:33:44;;;;;;;;;45.25;38.50;14.30;71.90;;;;;;4701713;30;8849;-65
2022/05/01 03:36:11;;;;;;;;;65.25;52.00;14.40;71.60;;;;;;4701591;30;8951;-65
2022/05/01 03:38:38;;;;;;;;;92.00;82.25;14.30;71.40;;;;;;4701258;30;8838;-65
2022/05/01 03:41:06;;;;;;;;;93.50;87.00;14.10;73.00;;;;;;4701322;30;8833;-65
2022/05/01 03:43:32;;;;;;;;;87.25;83.25;14.00;73.90;;;;;;4701529;30;8821;-65
2022/05/01 03:45:59;;;;;;;;;77.00;64.75;14.10;72.70;;;;;;4701198;30;8821;-65
2022/05/01 03:48:25;;;;;;;;;66.00;53.75;14.40;71.50;;;;;;4701248;30;8833;-64
2022/05/01 03:50:52;;;;;;;;;58.25;48.25;14.30;72.20;;;;;;4701157;30;8813;-64
2022/05/01 03:53:19;;;;;;;;;58.00;46.25;14.10;72.20;;;;;;4701123;30;9515;-65
2022/05/01 03:55:44;;;;;;;;;66.50;51.50;14.20;72.20;;;;;;4700939;30;8948;-64
2022/05/01 03:58:10;;;;;;;;;69.25;55.50;14.30;72.00;;;;;;4700837;30;9465;-65
2022/05/01 04:00:36;;;;;;;;;66.50;51.25;15.00;69.20;;;;;;4701043;30;8805;-65
2022/05/01 04:03:02;;;;;;;;;62.50;48.50;15.10;68.20;;;;;;4701283;30;8825;-65
2022/05/01 04:05:27;;;;;;;;;61.75;48.75;15.40;66.70;;;;;;4701177;30;8897;-65
2022/05/01 04:07:53;;;;;;;;;61.50;48.00;15.10;67.80;;;;;;4701090;30;8802;-64
2022/05/01 04:10:19;;;;;;;;;55.00;42.00;15.00;67.60;;;;;;4714321;30;8852;-65
2022/05/01 04:12:45;;;;;;;;;48.00;39.00;15.10;67.70;;;;;;4701223;30;8886;-64
2022/05/01 04:15:14;;;;;;;;;36.00;33.25;15.40;66.30;;;;;;4701170;30;8895;-65
2022/05/01 04:17:40;;;;;;;;;36.67;32.33;15.70;64.50;;;;;;4701089;30;8853;-65
2022/05/01 04:20:12;;;;;;;;;46.50;39.00;15.30;66.30;;;;;;4701674;30;8837;-64
2022/05/01 04:22:46;;;;;;;;;49.00;41.00;15.40;66.00;;;;;;4704616;30;8829;-64
2022/05/01 04:25:21;;;;;;;;;46.00;38.25;15.30;65.90;;;;;;4704697;30;9488;-65
2022/05/01 04:27:49;;;;;;;;;53.25;42.50;15.80;64.50;;;;;;4717871;30;9031;-64
2022/05/01 04:30:16;;;;;;;;;47.75;40.75;15.80;64.50;;;;;;4704419;30;8829;-65
2022/05/01 04:32:54;;;;;;;;;57.50;46.00;15.60;65.00;;;;;;4704560;30;8817;-65
2022/05/01 04:35:25;;;;;;;;;49.25;41.25;15.60;65.30;;;;;;4704132;30;8829;-65
2022/05/01 04:37:52;;;;;;;;;49.00;40.50;15.30;66.50;;;;;;4704289;30;8828;-64
2022/05/01 04:40:18;;;;;;;;;51.50;41.25;15.00;67.60;;;;;;4703466;30;8825;-64
2022/05/01 04:42:44;;;;;;;;;41.00;36.00;15.00;67.90;;;;;;4704272;30;8891;-64
2022/05/01 04:45:11;;;;;;;;;51.00;42.25;15.20;67.40;;;;;;4704381;30;8817;-64
2022/05/01 04:47:38;;;;;;;;;46.00;38.00;15.20;67.40;;;;;;4704115;30;8809;-64
2022/05/01 04:50:05;;;;;;;;;39.67;34.33;15.10;67.70;;;;;;4704228;30;9485;-64
2022/05/01 04:52:30;;;;;;;;;33.33;32.00;15.00;68.10;;;;;;4704020;30;8821;-65
2022/05/01 04:54:56;;;;;;;;;33.67;31.67;15.50;66.80;;;;;;4703823;30;8911;-65
2022/05/01 04:57:22;;;;;;;;;43.25;38.25;15.50;65.80;;;;;;4703941;30;8873;-65
2022/05/01 04:59:48;;;;;;;;;61.50;49.00;15.30;66.80;;;;;;4703882;30;9010;-64
2022/05/01 05:02:14;;;;;;;;;63.25;49.50;15.10;67.70;;;;;;4704179;30;9515;-64
2022/05/01 05:04:41;;;;;;;;;60.00;49.50;14.80;69.80;;;;;;4703813;30;8837;-64
2022/05/01 05:07:06;;;;;;;;;47.50;39.25;14.70;70.30;;;;;;4703860;30;9532;-64
2022/05/01 05:12:17;;;;;;;;;41.25;36.00;14.80;70.10;;;;;;4703772;30;8797;-65
2022/05/01 05:14:43;;;;;;;;;34.00;32.00;14.60;71.30;;;;;;4703566;30;8919;-65
2022/05/01 05:17:10;;;;;;;;;32.67;30.33;14.60;71.90;;;;;;4703865;30;8869;-64
2022/05/01 05:19:36;;;;;;;;;28.67;28.00;14.60;72.00;;;;;;4703237;30;8846;-64
2022/05/01 05:22:03;;;;;;;;;32.67;30.00;14.70;72.40;;;;;;4702792;30;8832;-64
2022/05/01 05:24:30;;;;;;;;;28.00;26.67;14.60;73.40;;;;;;4702990;30;8825;-65
2022/05/01 05:26:56;;;;;;;;;26.67;24.67;14.70;72.60;;;;;;4702712;30;8853;-65
2022/05/01 05:29:22;;;;;;;;;21.67;21.67;14.50;73.90;;;;;;4703269;30;8825;-64
2022/05/01 05:31:48;;;;;;;;;25.00;24.00;14.60;75.00;;;;;;4702865;30;8877;-65
2022/05/01 05:34:13;;;;;;;;;28.33;28.33;15.00;73.30;;;;;;4703627;30;8822;-65
2022/05/01 05:36:39;;;;;;;;;24.67;22.33;15.20;71.80;;;;;;4703200;30;8890;-64
2022/05/01 05:39:05;;;;;;;;;31.00;30.33;15.10;72.70;;;;;;4703510;30;8845;-65
2022/05/01 05:41:31;;;;;;;;;35.33;32.67;15.40;71.80;;;;;;4703309;30;8809;-65
2022/05/01 05:43:56;;;;;;;;;26.00;26.00;15.60;71.30;;;;;;4703108;30;8814;-64
2022/05/01 05:46:22;;;;;;;;;28.67;27.67;15.30;72.80;;;;;;4703485;30;8920;-66
2022/05/01 05:48:48;;;;;;;;;36.75;34.00;15.20;73.60;;;;;;4703180;30;8858;-65
2022/05/01 05:51:13;;;;;;;;;19.67;19.67;15.20;74.00;;;;;;4702994;30;8826;-65
2022/05/01 05:53:39;;;;;;;;;21.00;21.00;15.20;72.60;;;;;;4703265;30;8940;-64
2022/05/01 05:56:05;;;;;;;;;31.00;27.00;15.30;72.70;;;;;;4702828;30;8877;-65
2022/05/01 05:58:31;;;;;;;;;21.67;21.67;15.20;73.70;;;;;;4703000;30;8806;-65
2022/05/01 06:00:57;;;;;;;;;22.00;21.33;15.00;73.10;;;;;;4702874;30;8833;-64
2022/05/01 06:03:22;;;;;;;;;19.00;19.00;15.00;75.60;;;;;;4701739;30;8872;-65
2022/05/01 06:05:48;;;;;;;;;22.33;22.33;15.30;73.90;;;;;;4702915;30;8943;-64
2022/05/01 06:08:15;;;;;;;;;20.33;20.33;15.60;71.20;;;;;;4702654;30;9465;-65
2022/05/01 06:10:41;;;;;;;;;27.00;25.33;15.60;71.70;;;;;;4702608;30;8841;-65
2022/05/01 06:13:07;;;;;;;;;17.33;17.33;15.40;72.80;;;;;;4702676;30;8817;-65
2022/05/01 06:15:33;;;;;;;;;25.00;22.00;15.30;72.90;;;;;;4702765;30;8846;-65
2022/05/01 06:17:58;;;;;;;;;22.00;22.00;15.20;74.50;;;;;;4702647;30;8818;-65
2022/05/01 06:20:26;;;;;;;;;21.67;21.67;15.60;73.10;;;;;;4702559;30;8920;-66
2022/05/01 06:22:52;;;;;;;;;25.67;25.67;16.10;71.30;;;;;;4702801;30;8852;-64
2022/05/01 06:25:18;;;;;;;;;24.00;24.00;16.20;70.30;;;;;;4702556;30;8806;-65
2022/05/01 06:27:44;;;;;;;;;18.67;17.00;16.10;69.80;;;;;;4702799;30;8840;-66
2022/05/01 06:30:11;;;;;;;;;21.33;21.33;16.00;69.90;;;;;;4702378;30;9464;-65
2022/05/01 06:32:39;;;;;;;;;29.00;25.33;16.10;70.30;;;;;;4701777;30;8852;-64
2022/05/01 06:35:06;;;;;;;;;21.00;20.00;16.10;68.00;;;;;;4685386;30;8902;-65
2022/05/01 06:37:34;;;;;;;;;23.33;21.00;15.80;69.20;;;;;;4685515;30;8916;-65
2022/05/01 06:40:00;;;;;;;;;30.00;30.00;15.80;69.10;;;;;;4687926;30;8829;-65
2022/05/01 06:42:25;;;;;;;;;20.00;18.67;15.90;68.10;;;;;;4701034;30;8908;-65
2022/05/01 06:44:51;;;;;;;;;18.67;17.67;16.10;68.60;;;;;;4702110;30;8825;-65
2022/05/01 06:47:17;;;;;;;;;18.00;18.00;16.30;68.10;;;;;;4702115;30;8863;-64
2022/05/01 06:49:43;;;;;;;;;17.33;17.33;16.70;65.60;;;;;;4698322;30;8840;-64
2022/05/01 06:52:08;;;;;;;;;25.33;21.67;17.10;64.40;;;;;;4684766;30;8828;-64
2022/05/01 06:54:34;;;;;;;;;17.33;16.33;16.90;64.90;;;;;;4684817;30;8820;-65
2022/05/01 06:57:00;;;;;;;;;17.67;17.67;16.80;64.10;;;;;;4684537;30;8938;-65
2022/05/01 06:59:25;;;;;;;;;21.67;20.33;16.80;63.10;;;;;;4684752;30;8836;-66
2022/05/01 07:01:51;;;;;;;;;23.33;22.67;16.80;63.70;;;;;;4684926;30;8828;-65
2022/05/01 07:04:17;;;;;;;;;30.33;29.00;16.60;63.90;;;;;;4684638;30;8849;-65
2022/05/01 07:06:43;;;;;;;;;35.67;33.67;16.60;64.30;;;;;;4684754;30;8957;-65
2022/05/01 07:09:09;;;;;;;;;26.00;24.33;16.70;64.80;;;;;;4684757;30;8836;-66
2022/05/01 07:11:35;;;;;;;;;26.00;24.33;16.80;65.90;;;;;;4684666;30;8839;-65
2022/05/01 07:14:00;;;;;;;;;26.67;22.67;17.40;64.00;;;;;;4684721;30;8812;-65
2022/05/01 07:16:26;;;;;;;;;25.67;24.67;17.70;62.40;;;;;;4684295;30;9521;-65
2022/05/01 07:18:52;;;;;;;;;19.33;19.33;18.20;62.90;;;;;;4684626;30;8820;-64
2022/05/01 07:21:19;;;;;;;;;21.00;21.00;17.90;61.30;;;;;;4684565;30;8820;-64
2022/05/01 07:23:44;;;;;;;;;17.00;13.67;17.60;60.40;;;;;;4684358;30;8906;-66
2022/05/01 07:26:10;;;;;;;;;28.00;24.33;17.70;60.30;;;;;;4684379;30;8848;-64
2022/05/01 07:28:36;;;;;;;;;20.67;19.33;17.50;62.00;;;;;;4688241;30;8822;-65
2022/05/01 07:31:04;;;;;;;;;19.67;19.67;17.40;61.20;;;;;;4700392;30;8892;-65
2022/05/01 07:33:30;;;;;;;;;13.00;12.33;17.50;60.60;;;;;;4699399;30;8939;-64
2022/05/01 07:35:57;;;;;;;;;18.00;17.33;17.70;59.20;;;;;;4697410;30;9024;-65
2022/05/01 07:38:23;;;;;;;;;17.00;16.33;18.00;58.40;;;;;;4700920;30;8856;-65
2022/05/01 07:40:49;;;;;;;;;18.00;18.00;18.00;57.10;;;;;;4701587;30;8838;-65
2022/05/01 07:43:15;;;;;;;;;16.67;16.67;18.10;56.60;;;;;;4700643;30;8845;-64
2022/05/01 07:45:43;;;;;;;;;16.33;15.33;18.70;56.10;;;;;;4700090;30;8810;-64
2022/05/01 07:48:09;;;;;;;;;15.67;14.67;18.30;58.30;;;;;;4700061;30;8817;-65
2022/05/01 07:50:35;;;;;;;;;15.33;14.33;18.50;55.30;;;;;;4700250;30;8818;-65
2022/05/01 07:53:00;;;;;;;;;18.33;18.33;18.60;55.70;;;;;;4699875;30;9430;-64
2022/05/01 07:55:26;;;;;;;;;18.00;17.67;18.30;54.60;;;;;;4699371;30;8880;-65
2022/05/01 07:57:52;;;;;;;;;16.67;16.67;18.20;55.80;;;;;;4700463;30;8821;-65
2022/05/01 08:00:18;;;;;;;;;16.33;16.33;18.60;57.50;;;;;;4700385;30;8818;-63
2022/05/01 08:05:29;;;;;;;;;18.67;17.00;18.30;55.40;;;;;;4699752;30;8802;-64
2022/05/01 08:07:56;;;;;;;;;17.00;16.33;18.60;57.10;;;;;;4699737;30;8829;-64
2022/05/01 08:10:22;;;;;;;;;17.33;17.00;18.70;55.80;;;;;;4699619;30;8907;-63
2022/05/01 08:12:48;;;;;;;;;14.00;11.33;18.30;55.20;;;;;;4699684;30;8817;-64
2022/05/01 08:15:17;;;;;;;;;15.33;15.33;18.20;55.60;;;;;;4698997;30;8818;-64
2022/05/01 08:17:44;;;;;;;;;16.00;16.00;18.10;55.80;;;;;;4699518;30;8869;-64
2022/05/01 08:23:04;;;;;;;;;20.33;19.33;18.80;55.90;;;;;;4699621;30;8814;-63
2022/05/01 08:25:30;;;;;;;;;21.67;19.67;18.80;53.90;;;;;;4697739;30;8991;-63
2022/05/01 08:27:56;;;;;;;;;19.67;19.67;19.00;54.30;;;;;;4699541;30;9000;-64
2022/05/01 08:30:22;;;;;;;;;15.67;14.33;19.00;54.60;;;;;;4700914;30;8899;-64
2022/05/01 08:32:47;;;;;;;;;16.33;14.67;19.00;53.80;;;;;;4698357;30;9472;-63
2022/05/01 08:35:13;;;;;;;;;13.33;13.33;19.00;53.00;;;;;;4697660;30;8940;-63
2022/05/01 08:37:40;;;;;;;;;13.33;13.33;19.30;52.50;;;;;;4700778;30;8912;-64
2022/05/01 08:40:07;;;;;;;;;12.33;11.33;19.30;51.50;;;;;;4713949;30;11787;-63
2022/05/01 08:42:36;;;;;;;;;11.33;11.33;19.40;51.20;;;;;;4700755;30;8834;-64
2022/05/01 08:45:03;;;;;;;;;14.00;12.33;19.40;50.50;;;;;;4700388;30;11823;-64
2022/05/01 08:47:40;;;;;;;;;15.67;15.00;19.40;51.10;;;;;;4700598;30;11856;-63
2022/05/01 08:50:08;;;;;;;;;13.00;13.00;19.80;51.90;;;;;;4700786;30;11766;-64
2022/05/01 08:52:38;;;;;;;;;12.00;11.67;20.00;49.60;;;;;;4700559;30;11792;-64
2022/05/01 08:55:08;;;;;;;;;11.33;11.33;19.90;48.80;;;;;;4700265;30;11736;-64
2022/05/01 08:57:34;;;;;;;;;9.33;9.33;19.90;49.30;;;;;;4700462;30;11782;-64
2022/05/01 09:00:01;;;;;;;;;10.00;10.00;20.00;49.70;;;;;;4700130;30;11722;-64
2022/05/01 09:02:30;;;;;;;;;13.67;13.67;20.20;48.50;;;;;;4700302;30;12377;-63
2022/05/01 09:04:58;;;;;;;;;11.33;11.33;19.90;48.30;;;;;;4700332;30;11750;-64
2022/05/01 09:07:24;;;;;;;;;14.33;13.33;19.60;48.70;;;;;;4703475;30;11865;-65
2022/05/01 09:09:51;;;;;;;;;11.67;11.67;19.80;49.10;;;;;;4703764;30;11934;-64
2022/05/01 09:15:05;;;;;;;;;12.33;12.33;20.10;49.50;;;;;;4703011;30;12375;-65
2022/05/01 09:17:31;;;;;;;;;11.33;11.33;19.90;49.30;;;;;;4703618;30;11857;-64
2022/05/01 09:20:10;;;;;;;;;14.33;11.33;19.60;47.60;;;;;;4703367;30;11854;-64
2022/05/01 09:22:50;;;;;;;;;14.00;13.00;19.30;49.30;;;;;;4702117;30;8845;-65
2022/05/01 09:25:18;;;;;;;;;14.00;12.67;19.60;50.70;;;;;;4702189;30;11784;-64
2022/05/01 09:27:43;;;;;;;;;14.67;12.67;19.90;48.60;;;;;;4702831;30;11851;-64
2022/05/01 09:30:10;;;;;;;;;13.00;11.33;20.10;50.10;;;;;;4703351;30;11844;-63
2022/05/01 09:32:38;;;;;;;;;11.00;9.00;20.30;49.00;;;;;;4703361;30;8845;-63
2022/05/01 09:35:06;;;;;;;;;12.00;11.67;20.40;47.50;;;;;;4703400;30;12575;-64
2022/05/01 09:37:32;;;;;;;;;10.33;10.33;20.80;49.10;;;;;;4703397;30;11852;-65
2022/05/01 09:39:58;;;;;;;;;12.00;10.67;21.10;49.70;;;;;;4703050;30;11729;-64
2022/05/01 09:42:25;;;;;;;;;8.33;8.00;20.60;46.60;;;;;;4703500;30;8829;-63
2022/05/01 09:45:14;;;;;;;;;14.33;13.00;20.40;47.70;;;;;;4702579;30;8821;-65
2022/05/01 09:47:42;;;;;;;;;15.00;14.33;20.50;48.50;;;;;;4702526;30;11811;-63
2022/05/01 09:50:09;;;;;;;;;14.00;14.00;21.00;49.00;;;;;;4701004;30;11852;-64
2022/05/01 09:52:58;;;;;;;;;13.33;12.33;21.40;48.30;;;;;;4701690;30;11826;-63
2022/05/01 09:55:25;;;;;;;;;14.00;13.00;21.60;47.90;;;;;;4701018;30;11762;-63
2022/05/01 09:58:14;;;;;;;;;15.00;14.00;21.50;47.20;;;;;;4701175;30;11748;-64
2022/05/01 10:00:47;;;;;;;;;14.00;14.00;21.60;48.00;;;;;;4701610;30;11759;-63
2022/05/01 10:03:19;;;;;;;;;12.33;12.00;21.70;46.80;;;;;;4697166;30;11772;-63
2022/05/01 10:05:46;;;;;;;;;10.00;9.00;21.60;46.80;;;;;;4702849;30;11740;-64
2022/05/01 10:08:13;;;;;;;;;12.67;12.00;21.50;46.30;;;;;;4702619;30;11721;-64
2022/05/01 10:10:41;;;;;;;;;11.00;11.00;21.60;46.90;;;;;;4702484;30;11710;-64
2022/05/01 10:13:10;;;;;;;;;17.67;16.33;21.20;46.80;;;;;;4702403;30;11744;-63
2022/05/01 10:15:36;;;;;;;;;15.67;15.67;21.10;46.50;;;;;;4702499;30;12464;-63
2022/05/01 10:18:02;;;;;;;;;14.00;13.33;20.90;47.10;;;;;;4701343;30;12348;-63
2022/05/01 10:20:29;;;;;;;;;16.00;14.00;20.90;47.60;;;;;;4701160;30;11755;-63
2022/05/01 10:22:59;;;;;;;;;24.00;23.00;21.20;48.70;;;;;;4699264;30;8810;-64
2022/05/01 10:25:25;;;;;;;;;17.33;17.33;21.90;47.90;;;;;;4701228;30;8829;-64
2022/05/01 10:28:03;;;;;;;;;15.67;15.33;22.20;45.90;;;;;;4700757;30;8920;-64
2022/05/01 10:33:43;;;;;;;;;17.33;16.33;21.90;46.40;;;;;;4701079;30;11745;-63
2022/05/01 10:36:08;;;;;;;;;18.67;15.67;21.90;46.30;;;;;;4698711;30;11852;-64
2022/05/01 10:38:43;;;;;;;;;15.33;15.33;21.60;47.00;;;;;;4701203;30;11747;-63
2022/05/01 10:41:11;;;;;;;;;16.00;15.33;21.60;47.80;;;;;;4699129;30;9600;-64
2022/05/01 10:43:38;;;;;;;;;22.33;22.33;21.80;47.90;;;;;;4700628;30;11770;-63
2022/05/01 10:46:19;;;;;;;;;24.33;23.67;22.20;47.30;;;;;;4714371;30;8838;-64
2022/05/01 10:48:45;;;;;;;;;20.67;20.67;22.30;46.10;;;;;;4700281;30;8814;-63
2022/05/01 10:51:34;;;;;;;;;18.67;18.67;22.10;45.50;;;;;;4700686;30;8893;-63
2022/05/01 10:54:13;;;;;;;;;18.00;17.67;22.20;46.40;;;;;;4700234;30;8829;-67
2022/05/01 10:56:41;;;;;;;;;17.33;17.33;22.00;46.20;;;;;;4700427;30;11804;-65
2022/05/01 10:59:34;;;;;;;;;18.33;17.00;21.60;46.40;;;;;;4700314;30;11721;-63
2022/05/01 11:02:03;;;;;;;;;14.00;14.00;22.30;47.30;;;;;;4700258;30;11752;-63
2022/05/01 11:04:38;;;;;;;;;19.00;18.33;22.20;46.00;;;;;;4700498;30;11721;-63
2022/05/01 11:07:05;;;;;;;;;20.00;18.67;22.10;47.00;;;;;;4700703;30;11762;-64
2022/05/01 11:09:34;;;;;;;;;18.33;18.33;22.20;46.40;;;;;;4700456;30;11750;-64
2022/05/01 11:12:01;;;;;;;;;15.00;15.00;22.00;45.70;;;;;;4700100;30;11798;-64
2022/05/01 11:14:35;;;;;;;;;17.67;17.67;21.90;46.30;;;;;;4700026;30;11777;-63
2022/05/01 11:17:04;;;;;;;;;12.33;12.00;22.00;45.80;;;;;;4700321;30;8857;-63
2022/05/01 11:19:42;;;;;;;;;17.00;17.00;22.10;45.30;;;;;;4700581;30;8907;-63
2022/05/01 11:22:08;;;;;;;;;17.33;17.00;22.10;44.70;;;;;;4697167;30;12386;-64
2022/05/01 11:24:44;;;;;;;;;18.67;17.67;22.20;44.80;;;;;;4699590;30;11833;-63
2022/05/01 11:27:16;;;;;;;;;19.33;19.00;23.10;44.40;;;;;;4699032;30;9059;-63
2022/05/01 11:30:13;;;;;;;;;18.00;17.00;23.10;42.90;;;;;;4699098;30;11839;-63
2022/05/01 11:32:43;;;;;;;;;13.00;13.00;22.90;43.50;;;;;;4694065;30;11779;-63
2022/05/01 11:35:11;;;;;;;;;20.00;19.67;22.70;44.80;;;;;;4699670;30;11731;-64
2022/05/01 11:37:58;;;;;;;;;21.00;21.00;23.20;45.40;;;;;;4700346;30;11786;-64
2022/05/01 11:40:26;;;;;;;;;18.33;18.33;23.70;44.30;;;;;;4699336;30;11751;-63
2022/05/01 11:43:13;;;;;;;;;16.75;16.00;23.80;43.10;;;;;;4697633;30;11767;-64
2022/05/01 11:45:38;;;;;;;;;10.00;9.00;23.80;42.50;;;;;;4700932;30;11750;-64
2022/05/01 11:48:14;;;;;;;;;12.00;12.00;23.80;41.30;;;;;;4701012;30;11756;-63
2022/05/01 11:50:41;;;;;;;;;14.75;14.75;23.90;41.30;;;;;;4699376;30;8856;-64
2022/05/01 11:53:30;;;;;;;;;18.00;18.00;23.90;42.90;;;;;;4700093;30;11782;-64
2022/05/01 12:04:37;;;;;;;;;15.25;15.25;23.90;40.10;;;;;;4700584;30;11760;-65
2022/05/01 12:07:03;;;;;;;;;15.25;15.25;23.80;39.70;;;;;;4698744;30;11948;-64
2022/05/01 12:09:30;;;;;;;;;15.25;15.25;24.00;39.90;;;;;;4698658;30;12444;-63
2022/05/01 12:11:56;;;;;;;;;16.25;15.50;24.50;40.00;;;;;;4699226;30;8880;-64
2022/05/01 12:14:22;;;;;;;;;17.75;17.75;24.50;40.90;;;;;;4698014;30;11740;-64
2022/05/01 12:16:48;;;;;;;;;14.00;14.00;24.40;40.80;;;;;;4699503;30;11752;-64
2022/05/01 12:19:15;;;;;;;;;16.50;16.50;24.30;38.40;;;;;;4699517;30;8806;-67
2022/05/01 12:21:41;;;;;;;;;16.25;15.00;24.30;40.00;;;;;;4699650;30;11753;-66
2022/05/01 12:24:09;;;;;;;;;16.75;16.75;24.70;39.20;;;;;;4700001;30;11785;-66
2022/05/01 12:26:39;;;;;;;;;15.00;14.00;25.00;39.10;;;;;;4700735;30;8821;-65
2022/05/01 12:29:09;;;;;;;;;14.00;12.75;24.60;38.10;;;;;;4700885;30;11747;-69
2022/05/01 12:32:06;;;;;;;;;13.25;13.25;24.80;38.50;;;;;;4697985;30;11867;-73
2022/05/01 12:34:55;;;;;;;;;12.00;12.00;24.90;38.30;;;;;;4700680;30;11930;-71
2022/05/01 12:37:34;;;;;;;;;15.00;14.75;25.00;37.00;;;;;;4701036;30;11842;-73
2022/05/01 12:40:04;;;;;;;;;16.75;14.75;25.10;38.90;;;;;;4700983;30;11714;-71
2022/05/01 12:45:35;;;;;;;;;13.25;12.25;25.50;35.90;;;;;;4704172;30;11682;-72
2022/05/01 12:48:02;;;;;;;;;16.75;16.75;25.30;37.20;;;;;;4704460;30;11749;-72
2022/05/01 12:50:29;;;;;;;;;10.75;10.75;25.20;37.80;;;;;;4703869;30;11750;-72
2022/05/01 12:52:58;;;;;;;;;18.50;17.75;25.60;38.00;;;;;;4704113;30;11718;-73
2022/05/01 12:55:31;;;;;;;;;17.75;15.00;25.50;38.80;;;;;;4703961;30;11780;-75
2022/05/01 12:57:58;;;;;;;;;16.00;15.75;25.50;37.20;;;;;;4704089;30;11804;-71
2022/05/01 13:00:42;;;;;;;;;15.50;15.25;25.30;37.20;;;;;;4703886;30;11730;-74
2022/05/01 13:03:28;;;;;;;;;16.50;14.00;25.30;37.60;;;;;;4703884;30;11727;-71
2022/05/01 13:06:14;;;;;;;;;17.00;17.00;25.30;35.70;;;;;;4703895;30;11798;-70
2022/05/01 13:08:48;;;;;;;;;16.50;16.00;25.00;38.50;;;;;;4703762;30;11858;-73
2022/05/01 13:11:26;;;;;;;;;14.00;14.00;25.10;37.70;;;;;;4703744;30;11739;-72
2022/05/01 13:14:06;;;;;;;;;18.00;17.00;25.30;37.10;;;;;;4703711;30;11727;-74
2022/05/01 13:16:32;;;;;;;;;16.75;15.75;25.10;38.10;;;;;;4703776;30;11809;-73
2022/05/01 13:18:58;;;;;;;;;18.00;17.25;26.80;34.50;;;;;;4703774;30;11739;-72